Time;durP1;ratioP1;P1;durP2;ratioP2;P2;SDS_P1;SDS_P2;PMS_P1;PMS_P2;Temp;Humidity;BMP_temperature;BMP_pressure;BME280_temperature;BME280_humidity;BME280_pressure;Samples;Min_cycle;Max_cycle;Signal;HPM_P1;HPM_P2
2022/12/03 00:01:29;;;;;;;13.93;6.92;;;;;;;-0.31;66.02;101209.53;1657643;86;21134;-79
2022/12/03 00:03:56;;;;;;;12.40;6.30;;;;;;;-0.35;66.06;101213.19;1650291;85;22146;-80
2022/12/03 00:06:23;;;;;;;14.10;6.80;;;;;;;-0.34;66.03;101214.91;1661513;86;21089;-79
2022/12/03 00:08:50;;;;;;;9.88;6.62;;;;;;;-0.37;66.18;101218.47;1639197;86;21116;-77
2022/12/03 00:11:16;;;;;;;13.90;6.65;;;;;;;-0.34;66.14;101214.44;1660051;86;21050;-78
2022/12/03 00:13:44;;;;;;;8.93;6.13;;;;;;;-0.35;66.09;101214.03;1660441;86;21604;-77
2022/12/03 00:16:10;;;;;;;12.18;6.05;;;;;;;-0.35;66.12;101212.72;1655561;86;21337;-79
2022/12/03 00:18:37;;;;;;;11.63;6.58;;;;;;;-0.37;66.26;101221.08;1653158;86;21027;-80
2022/12/03 00:21:03;;;;;;;9.08;6.42;;;;;;;-0.35;66.30;101224.47;1662086;86;21042;-75
2022/12/03 00:23:31;;;;;;;12.60;6.30;;;;;;;-0.39;66.41;101217.67;1654242;86;21102;-77
2022/12/03 00:25:58;;;;;;;11.95;6.35;;;;;;;-0.38;66.34;101215.94;1662507;85;21068;-77
2022/12/03 00:28:24;;;;;;;10.50;6.40;;;;;;;-0.43;66.41;101226.55;1665236;85;21267;-79
2022/12/03 00:30:52;;;;;;;10.23;6.03;;;;;;;-0.43;66.73;101222.63;1662537;85;21074;-78
2022/12/03 00:33:20;;;;;;;10.53;6.62;;;;;;;-0.49;66.72;101219.81;1656076;85;21254;-78
2022/12/03 00:35:47;;;;;;;8.83;6.12;;;;;;;-0.50;66.75;101224.66;1661820;85;21113;-76
2022/12/03 00:38:14;;;;;;;8.40;5.95;;;;;;;-0.52;66.83;101226.91;1658169;85;21097;-79
2022/12/03 00:40:41;;;;;;;9.55;5.78;;;;;;;-0.50;66.86;101224.66;1655986;85;21166;-78
2022/12/03 00:43:07;;;;;;;10.48;6.17;;;;;;;-0.53;66.96;101222.16;1661870;85;21039;-76
2022/12/03 00:45:34;;;;;;;9.80;6.50;;;;;;;-0.48;66.80;101219.38;1646637;85;21165;-78
2022/12/03 00:48:00;;;;;;;10.13;6.33;;;;;;;-0.51;66.88;101220.80;1663286;85;21133;-76
2022/12/03 00:50:27;;;;;;;9.40;5.42;;;;;;;-0.47;66.96;101223.67;1662131;85;21058;-78
2022/12/03 00:52:53;;;;;;;9.83;5.78;;;;;;;-0.51;67.01;101222.09;1635684;87;21573;-77
2022/12/03 00:55:20;;;;;;;11.30;6.40;;;;;;;-0.47;67.04;101217.98;1658700;85;21089;-77
2022/12/03 00:57:46;;;;;;;10.32;6.33;;;;;;;-0.48;67.01;101223.30;1664403;85;21046;-78
2022/12/03 01:00:14;;;;;;;9.95;6.08;;;;;;;-0.46;66.92;101224.08;1666001;85;21155;-78
2022/12/03 01:02:41;;;;;;;11.18;6.80;;;;;;;-0.49;66.97;101229.41;1654558;85;21049;-78
2022/12/03 01:05:08;;;;;;;9.73;5.65;;;;;;;-0.47;66.99;101223.20;1655893;85;21160;-78
2022/12/03 01:07:35;;;;;;;12.45;6.62;;;;;;;-0.49;67.11;101221.58;1661559;85;21010;-77
2022/12/03 01:10:04;;;;;;;7.22;5.35;;;;;;;-0.47;67.13;101224.52;1659736;85;21577;-77
2022/12/03 01:12:32;;;;;;;9.68;6.20;;;;;;;-0.50;67.18;101225.09;1666205;85;21092;-78
2022/12/03 01:14:59;;;;;;;9.63;6.37;;;;;;;-0.48;67.18;101221.52;1661958;85;21077;-77
2022/12/03 01:17:25;;;;;;;11.78;6.42;;;;;;;-0.50;67.29;101225.09;1663442;85;21162;-79
2022/12/03 01:19:51;;;;;;;10.85;5.80;;;;;;;-0.47;67.20;101227.59;1661172;85;21197;-75
2022/12/03 01:22:18;;;;;;;9.08;5.42;;;;;;;-0.51;67.16;101229.47;1664943;85;21146;-76
2022/12/03 01:24:45;;;;;;;9.75;6.12;;;;;;;-0.47;67.24;101231.04;1666503;85;21026;-77
2022/12/03 01:27:12;;;;;;;10.25;6.10;;;;;;;-0.48;67.32;101227.21;1662240;85;21080;-76
2022/12/03 01:29:38;;;;;;;9.55;5.62;;;;;;;-0.45;67.33;101227.07;1665158;85;21264;-78
2022/12/03 01:32:18;;;;;;;9.93;6.75;;;;;;;-0.49;67.41;101229.41;1667871;85;21157;-76
2022/12/03 01:34:46;;;;;;;10.13;6.08;;;;;;;-0.46;67.35;101231.45;1667600;85;21106;-78
2022/12/03 01:37:13;;;;;;;8.75;5.67;;;;;;;-0.46;67.35;101234.52;1715784;83;21013;-76
2022/12/03 01:39:40;;;;;;;9.20;5.47;;;;;;;-0.43;67.26;101235.23;1658672;86;21102;-77
2022/12/03 01:42:08;;;;;;;9.48;5.75;;;;;;;-0.45;67.22;101238.81;1654217;86;21657;-78
2022/12/03 01:44:35;;;;;;;10.08;6.50;;;;;;;-0.45;67.29;101234.91;1651415;86;21018;-77
2022/12/03 01:47:04;;;;;;;9.95;5.87;;;;;;;-0.49;67.35;101234.17;1655245;86;21070;-77
2022/12/03 01:49:47;;;;;;;10.15;6.03;;;;;;;-0.46;67.33;101235.83;1645589;86;21114;-76
2022/12/03 01:52:16;;;;;;;10.85;6.70;;;;;;;-0.49;67.33;101239.85;1654684;86;21109;-75
2022/12/03 01:54:49;;;;;;;7.90;5.37;;;;;;;-0.47;67.41;101236.72;1654639;86;21165;-75
2022/12/03 01:57:21;;;;;;;10.70;6.25;;;;;;;-0.50;67.58;101242.05;1650041;86;21038;-78
2022/12/03 01:59:48;;;;;;;11.83;6.10;;;;;;;-0.50;67.59;101239.44;1682644;84;21044;-77
2022/12/03 02:02:23;;;;;;;9.50;5.95;;;;;;;-0.50;67.52;101240.75;1686859;84;21143;-76
2022/12/03 02:04:49;;;;;;;;;;;;;;;-0.53;67.58;101239.58;1714314;83;21030;-73
2022/12/03 02:07:19;;;;;;;10.32;6.03;;;;;;;-0.53;67.63;101240.89;1711643;83;21099;-75
2022/12/03 02:09:45;;;;;;;8.10;5.50;;;;;;;-0.57;67.68;101244.53;1708536;83;21072;-75
2022/12/03 02:12:12;;;;;;;10.55;4.95;;;;;;;-0.55;67.74;101244.02;1655538;86;21057;-74
2022/12/03 02:14:39;;;;;;;8.18;5.62;;;;;;;-0.58;67.83;101248.88;1652993;85;21011;-75
2022/12/03 02:17:05;;;;;;;10.90;6.20;;;;;;;-0.54;67.77;101250.92;1658312;85;21018;-72
2022/12/03 02:19:33;;;;;;;10.85;6.78;;;;;;;-0.57;67.92;101253.67;1657819;85;21852;-74
2022/12/03 02:22:08;;;;;;;7.92;5.20;;;;;;;-0.54;67.88;101248.31;1656438;86;21141;-76
2022/12/03 02:24:50;;;;;;;9.58;5.45;;;;;;;-0.58;67.91;101259.78;1641667;86;21022;-75
2022/12/03 02:27:16;;;;;;;10.72;6.20;;;;;;;-0.60;67.90;101253.31;1655139;86;21105;-75
2022/12/03 02:29:43;;;;;;;9.33;5.72;;;;;;;-0.64;67.99;101256.52;1671418;84;21046;-75
2022/12/03 02:32:09;;;;;;;8.95;6.22;;;;;;;-0.64;68.04;101255.22;1676666;85;21127;-76
2022/12/03 02:34:44;;;;;;;9.98;5.80;;;;;;;-0.66;68.12;101253.13;1672583;85;21087;-76
2022/12/03 02:37:17;;;;;;;9.13;5.70;;;;;;;-0.67;68.16;101256.63;1651694;86;21037;-74
2022/12/03 02:39:48;;;;;;;8.48;4.95;;;;;;;-0.68;68.19;101257.52;1658204;86;21066;-78
2022/12/03 02:45:18;;;;;;;8.93;5.42;;;;;;;-0.72;68.24;101256.41;1654515;85;21560;-74
2022/12/03 02:47:48;;;;;;;10.08;5.75;;;;;;;-0.77;68.30;101260.52;1653260;86;21049;-72
2022/12/03 02:50:18;;;;;;;11.10;5.85;;;;;;;-0.77;68.42;101257.90;1660479;86;21152;-73
2022/12/03 02:52:45;;;;;;;8.90;5.85;;;;;;;-0.81;68.47;101255.86;1643473;85;21617;-74
2022/12/03 02:55:13;;;;;;;8.03;5.00;;;;;;;-0.77;68.45;101255.72;1660902;86;21055;-74
2022/12/03 02:57:39;;;;;;;10.88;6.80;;;;;;;-0.81;68.50;101268.91;1659793;86;21152;-72
2022/12/03 03:00:08;;;;;;;10.00;5.50;;;;;;;-0.76;68.53;101270.48;1643171;85;21111;-70
2022/12/03 03:02:36;;;;;;;9.73;5.75;;;;;;;-0.78;68.59;101269.23;1658474;86;21110;-72
2022/12/03 03:05:03;;;;;;;10.18;6.15;;;;;;;-0.76;68.58;101268.72;1657020;85;21070;-72
2022/12/03 03:07:30;;;;;;;10.55;6.45;;;;;;;-0.80;68.55;101270.59;1647576;86;21082;-72
2022/12/03 03:09:57;;;;;;;8.55;5.33;;;;;;;-0.76;68.67;101267.41;1663366;86;21237;-71
2022/12/03 03:12:24;;;;;;;8.58;5.47;;;;;;;-0.80;68.62;101273.20;1652672;86;21701;-72
2022/12/03 03:14:51;;;;;;;9.23;5.80;;;;;;;-0.76;68.63;101275.24;1649337;85;21058;-74
2022/12/03 03:17:18;;;;;;;11.40;6.85;;;;;;;-0.78;68.84;101282.74;1628076;86;21054;-72
2022/12/03 03:19:45;;;;;;;8.28;5.50;;;;;;;-0.78;68.72;101278.37;1657978;86;21506;-72
2022/12/03 03:22:11;;;;;;;9.40;5.87;;;;;;;-0.82;68.76;101272.41;1626616;86;21970;-72
2022/12/03 03:24:39;;;;;;;9.50;5.72;;;;;;;-0.78;68.65;101277.52;1659303;85;21079;-72
2022/12/03 03:27:06;;;;;;;12.05;6.42;;;;;;;-0.82;68.68;101283.31;1662449;85;21073;-72
2022/12/03 03:29:32;;;;;;;10.55;5.62;;;;;;;-0.85;68.74;101277.77;1651074;85;21146;-72
2022/12/03 03:33:14;;;;;;;11.47;7.03;;;;;;;-0.77;68.82;101272.25;1845205;77;22046;-76
2022/12/03 03:35:42;;;;;;;10.65;6.37;;;;;;;-0.77;68.93;101281.39;1855195;77;21064;-74
2022/12/03 03:38:08;;;;;;;9.33;5.80;;;;;;;-0.77;68.93;101290.95;1792003;78;21230;-74
2022/12/03 03:40:35;;;;;;;9.85;5.70;;;;;;;-0.74;68.92;101286.94;1820835;78;21032;-75
2022/12/03 03:43:02;;;;;;;10.48;6.20;;;;;;;-0.77;68.95;101290.95;1819398;77;21068;-73
2022/12/03 03:45:29;;;;;;;10.72;6.22;;;;;;;-0.79;68.99;101281.91;1793408;77;21009;-78
2022/12/03 03:47:57;;;;;;;9.53;6.08;;;;;;;-0.82;69.05;101293.28;1849888;76;20996;-72
2022/12/03 03:50:23;;;;;;;10.95;7.03;;;;;;;-0.84;69.09;101296.41;1819159;77;21927;-74
2022/12/03 03:52:50;;;;;;;10.05;6.42;;;;;;;-0.82;69.18;101298.96;1800096;78;21237;-76
2022/12/03 03:55:17;;;;;;;10.00;7.08;;;;;;;-0.86;69.40;101306.05;1802469;78;21108;-76
2022/12/03 03:57:47;;;;;;;12.30;7.22;;;;;;;-0.81;69.43;101308.51;1830297;77;21044;-76
2022/12/03 04:00:17;;;;;;;12.63;6.55;;;;;;;-0.85;69.45;101304.28;1793972;78;21044;-77
2022/12/03 04:02:43;;;;;;;13.05;6.50;;;;;;;-0.81;69.47;101309.81;1824441;78;21788;-76
2022/12/03 04:05:16;;;;;;;8.90;6.15;;;;;;;-0.84;69.56;101306.00;1812144;78;21036;-76
2022/12/03 04:07:42;;;;;;;10.63;6.30;;;;;;;-0.78;69.47;101304.92;1826601;77;21026;-76
2022/12/03 04:12:56;;;;;;;14.30;6.65;;;;;;;-0.76;69.36;101308.33;1822062;77;21048;-74
2022/12/03 04:15:23;;;;;;;9.65;6.40;;;;;;;-0.81;69.52;101307.20;1806604;77;21784;-73
2022/12/03 04:20:37;;;;;;;11.10;6.08;;;;;;;-0.84;69.60;101312.06;1819325;76;21002;-76
2022/12/03 04:23:03;;;;;;;8.28;6.10;;;;;;;-0.84;69.64;101309.91;1829025;76;21034;-75
2022/12/03 04:30:59;;;;;;;10.93;6.80;;;;;;;-0.81;69.75;101317.64;1810976;77;20973;-73
2022/12/03 04:36:10;;;;;;;10.15;5.92;;;;;;;-0.81;69.93;101320.25;1819860;77;21091;-73
2022/12/03 04:38:37;;;;;;;9.45;5.67;;;;;;;-0.81;69.98;101324.17;1817893;78;21006;-73
2022/12/03 04:41:04;;;;;;;10.28;6.85;;;;;;;-0.83;70.06;101322.91;1817203;77;21144;-76
2022/12/03 04:43:33;;;;;;;11.43;6.20;;;;;;;-0.81;70.02;101325.47;1816551;78;21024;-74
2022/12/03 04:46:00;;;;;;;11.25;6.17;;;;;;;-0.83;70.23;101323.34;1839786;75;21005;-73
2022/12/03 04:48:26;;;;;;;11.05;6.00;;;;;;;-0.78;70.07;101329.72;1840093;77;21042;-72
2022/12/03 04:50:53;;;;;;;9.93;5.95;;;;;;;-0.83;70.19;101322.91;1841081;77;21529;-72
2022/12/03 04:53:21;;;;;;;11.78;5.50;;;;;;;-0.80;70.16;101333.68;1830904;77;21477;-73
2022/12/03 04:55:47;;;;;;;9.10;5.67;;;;;;;-0.85;70.35;101333.86;1834078;77;21018;-74
2022/12/03 04:58:13;;;;;;;12.53;6.20;;;;;;;-0.82;70.41;101341.56;1826999;77;21472;-73
2022/12/03 05:00:40;;;;;;;9.13;5.62;;;;;;;-0.85;70.45;101340.81;1816659;77;21588;-73
2022/12/03 05:03:06;;;;;;;10.25;6.12;;;;;;;-0.85;70.39;101339.51;1813211;77;21073;-74
2022/12/03 05:05:33;;;;;;;9.68;6.25;;;;;;;-0.88;70.46;101339.64;1811131;77;21181;-75
2022/12/03 05:07:59;;;;;;;9.65;5.97;;;;;;;-0.91;70.67;101347.10;1809815;77;21052;-75
2022/12/03 05:10:26;;;;;;;10.23;6.50;;;;;;;-0.89;70.82;101341.84;1829948;75;21260;-73
2022/12/03 05:12:52;;;;;;;9.80;5.95;;;;;;;-0.89;70.82;101340.10;1821363;77;21080;-74
2022/12/03 05:15:19;;;;;;;10.23;5.92;;;;;;;-0.86;70.87;101348.27;1834390;77;21083;-73
2022/12/03 05:17:45;;;;;;;10.38;5.90;;;;;;;-0.81;70.84;101345.89;1835103;78;21249;-73
2022/12/03 05:22:58;;;;;;;9.30;5.45;;;;;;;-0.77;70.50;101354.45;1829947;78;21508;-74
2022/12/03 05:25:24;;;;;;;10.38;5.78;;;;;;;-0.82;70.54;101364.20;1806769;77;21540;-74
2022/12/03 05:27:51;;;;;;;9.35;5.37;;;;;;;-0.82;70.65;101365.05;1828529;78;21040;-73
2022/12/03 05:30:17;;;;;;;8.25;5.28;;;;;;;-0.84;70.46;101366.02;1826616;76;21138;-74
2022/12/03 05:32:44;;;;;;;9.83;5.87;;;;;;;-0.81;70.39;101370.67;1808693;78;21046;-73
2022/12/03 05:35:10;;;;;;;7.25;4.65;;;;;;;-0.81;70.15;101373.28;1845025;75;21021;-74
2022/12/03 05:37:37;;;;;;;9.68;5.65;;;;;;;-0.78;70.13;101374.92;1807798;77;21010;-73
2022/12/03 05:40:05;;;;;;;10.28;6.30;;;;;;;-0.77;70.02;101371.85;1838222;77;21001;-73
2022/12/03 05:45:17;;;;;;;10.80;6.10;;;;;;;-0.82;70.05;101374.18;1816033;76;21099;-74
2022/12/03 05:47:44;;;;;;;11.93;6.72;;;;;;;-0.83;70.29;101382.93;1835216;78;21044;-73
2022/12/03 05:50:11;;;;;;;10.43;5.50;;;;;;;-0.83;70.26;101374.23;1816038;76;21046;-73
2022/12/03 05:52:37;;;;;;;9.15;5.65;;;;;;;-0.85;70.31;101379.95;1833021;77;20969;-72
2022/12/03 05:55:05;;;;;;;11.80;6.30;;;;;;;-0.83;70.43;101382.93;1826763;78;21142;-72
2022/12/03 05:57:31;;;;;;;10.98;5.87;;;;;;;-0.85;70.51;101382.56;1822848;78;21032;-73
2022/12/03 05:59:58;;;;;;;14.28;7.22;;;;;;;-0.87;70.74;101390.47;1825915;77;21638;-72
2022/12/03 06:02:24;;;;;;;11.85;6.47;;;;;;;-0.92;70.73;101390.23;1827547;78;21053;-75
2022/12/03 06:04:51;;;;;;;9.35;5.75;;;;;;;-0.93;70.93;101388.05;1828047;76;21039;-72
2022/12/03 06:07:17;;;;;;;10.45;6.42;;;;;;;-0.94;71.05;101392.89;1830692;76;21293;-74
2022/12/03 06:09:43;;;;;;;11.30;7.10;;;;;;;-0.92;71.30;101386.32;1830009;76;20990;-72
2022/12/03 06:12:10;;;;;;;10.70;5.95;;;;;;;-0.89;71.35;101394.02;1825346;77;21493;-72
2022/12/03 06:14:36;;;;;;;11.78;6.65;;;;;;;-0.87;71.54;101394.81;1810219;76;21583;-71
2022/12/03 06:17:03;;;;;;;8.73;5.75;;;;;;;-0.84;71.43;101406.47;1821100;76;20986;-73
2022/12/03 06:19:30;;;;;;;11.97;6.55;;;;;;;-0.79;71.40;101403.25;1828454;78;21140;-71
2022/12/03 06:21:56;;;;;;;11.40;6.67;;;;;;;-0.79;71.35;101404.55;1847701;75;21029;-72
2022/12/03 06:24:23;;;;;;;10.23;6.65;;;;;;;-0.77;71.45;101404.47;1823078;78;21080;-72
2022/12/03 06:26:50;;;;;;;13.00;7.25;;;;;;;-0.79;71.50;101413.69;1822229;78;21598;-70
2022/12/03 06:29:16;;;;;;;11.75;5.95;;;;;;;-0.78;71.66;101408.01;1804107;77;21009;-71
2022/12/03 06:31:43;;;;;;;12.05;6.90;;;;;;;-0.82;71.87;101407.26;1816519;77;21171;-73
2022/12/03 06:34:09;;;;;;;13.78;6.78;;;;;;;-0.80;71.99;101412.81;1821933;78;21056;-72
2022/12/03 06:36:35;;;;;;;10.08;6.20;;;;;;;-0.81;72.35;101416.80;1809544;78;21025;-73
2022/12/03 06:39:02;;;;;;;11.33;6.72;;;;;;;-0.80;72.34;101422.41;1851130;75;21009;-72
2022/12/03 06:41:29;;;;;;;13.35;7.08;;;;;;;-0.79;72.35;101418.91;1864854;75;21029;-72
2022/12/03 06:43:55;;;;;;;13.05;7.55;;;;;;;-0.80;72.55;101419.80;1826420;77;21166;-71
2022/12/03 06:46:21;;;;;;;13.85;7.85;;;;;;;-0.76;72.74;101426.61;1831355;77;21108;-70
2022/12/03 06:48:48;;;;;;;17.12;7.97;;;;;;;-0.74;72.87;101431.78;1838828;77;21040;-71
2022/12/03 06:51:14;;;;;;;14.00;7.55;;;;;;;-0.73;72.89;101429.13;1815659;77;21057;-72
2022/12/03 06:53:41;;;;;;;13.85;8.25;;;;;;;-0.70;73.02;101434.22;1829047;75;21053;-72
2022/12/03 06:56:07;;;;;;;14.28;7.40;;;;;;;-0.63;73.04;101433.09;1816415;77;21239;-72
2022/12/03 06:58:34;;;;;;;14.18;7.65;;;;;;;-0.62;73.06;101432.64;1832893;78;21004;-73
2022/12/03 07:01:00;;;;;;;12.13;7.40;;;;;;;-0.61;73.07;101440.87;1830419;77;21028;-72
2022/12/03 07:03:27;;;;;;;16.00;8.10;;;;;;;-0.64;73.27;101445.77;1825414;77;21041;-71
2022/12/03 07:05:53;;;;;;;11.63;7.58;;;;;;;-0.63;73.41;101442.23;1811346;77;21009;-71
2022/12/03 07:08:19;;;;;;;15.78;8.18;;;;;;;-0.67;73.63;101438.03;1836050;77;21097;-76
2022/12/03 07:10:46;;;;;;;13.53;8.10;;;;;;;-0.66;73.87;101435.84;1846371;75;21570;-75
2022/12/03 07:13:12;;;;;;;15.68;8.60;;;;;;;-0.69;74.16;101441.16;1815935;77;21100;-76
2022/12/03 07:15:38;;;;;;;16.82;9.38;;;;;;;-0.69;74.47;101448.98;1809709;77;21045;-74
2022/12/03 07:18:05;;;;;;;13.78;7.97;;;;;;;-0.69;74.67;101435.94;1814065;78;21040;-76
2022/12/03 07:20:32;;;;;;;14.20;9.38;;;;;;;-0.71;74.94;101446.04;1818875;77;21306;-79
2022/12/03 07:22:58;;;;;;;14.53;8.30;;;;;;;-0.71;75.14;101446.04;1818841;78;21557;-75
2022/12/03 07:25:24;;;;;;;15.10;9.58;;;;;;;-0.74;75.45;101450.89;1806888;78;21135;-74
2022/12/03 07:27:51;;;;;;;16.50;8.70;;;;;;;-0.72;75.42;101450.38;1819365;77;21345;-73
2022/12/03 07:30:17;;;;;;;16.65;9.25;;;;;;;-0.77;75.69;101448.41;1816211;77;21013;-73
2022/12/03 07:32:44;;;;;;;17.55;9.90;;;;;;;-0.77;76.04;101453.63;1818736;78;21130;-74
2022/12/03 07:35:10;;;;;;;17.52;10.80;;;;;;;-0.78;76.28;101451.06;1804389;78;21073;-74
2022/12/03 07:37:36;;;;;;;15.75;10.00;;;;;;;-0.79;76.56;101455.44;1814153;77;21464;-75
2022/12/03 07:40:05;;;;;;;15.48;9.80;;;;;;;-0.79;76.72;101456.75;1813887;77;21014;-76
2022/12/03 07:42:31;;;;;;;16.73;9.30;;;;;;;-0.79;76.79;101459.36;1818299;76;21015;-74
2022/12/03 07:44:58;;;;;;;14.43;9.18;;;;;;;-0.76;76.90;101464.91;1814867;77;21088;-74
2022/12/03 07:47:24;;;;;;;17.65;10.08;;;;;;;-0.80;77.15;101470.69;1817233;77;21017;-74
2022/12/03 07:49:50;;;;;;;16.67;9.33;;;;;;;-0.80;77.00;101485.88;1849857;75;21037;-73
2022/12/03 07:52:17;;;;;;;13.35;9.65;;;;;;;-0.86;77.17;101466.98;1833544;77;21104;-73
2022/12/03 07:54:43;;;;;;;17.82;9.53;;;;;;;-0.89;77.27;101471.88;1804173;78;21536;-76
2022/12/03 07:57:10;;;;;;;15.10;9.98;;;;;;;-0.95;77.38;101472.52;1811617;77;21242;-75
2022/12/03 07:59:36;;;;;;;14.80;9.08;;;;;;;-0.93;77.64;101472.01;1826470;77;20997;-74
2022/12/03 08:02:02;;;;;;;15.98;9.38;;;;;;;-0.96;77.63;101472.97;1849382;77;21021;-76
2022/12/03 08:04:29;;;;;;;19.92;12.53;;;;;;;-0.95;77.83;101490.77;1853079;77;21029;-74
2022/12/03 08:06:55;;;;;;;15.83;10.23;;;;;;;-0.97;77.59;101495.19;1829106;77;21519;-74
2022/12/03 08:09:22;;;;;;;18.12;10.70;;;;;;;-0.94;77.58;101493.80;1844760;75;22147;-74
2022/12/03 08:11:49;;;;;;;16.27;10.65;;;;;;;-1.00;77.52;101489.17;1840750;77;21010;-74
2022/12/03 08:14:17;;;;;;;16.97;10.15;;;;;;;-1.02;77.72;101485.77;1843118;77;21020;-75
2022/12/03 08:16:45;;;;;;;23.15;10.13;;;;;;;-1.03;77.84;101486.66;1843797;77;21257;-75
2022/12/03 08:19:16;;;;;;;15.25;10.15;;;;;;;-1.03;77.95;101487.96;1821733;77;21017;-75
2022/12/03 08:21:43;;;;;;;17.45;9.70;;;;;;;-0.98;77.95;101488.28;1814954;77;21139;-74
2022/12/03 08:24:18;;;;;;;16.00;10.30;;;;;;;-1.00;77.98;101485.27;1839801;77;21024;-75
2022/12/03 08:26:47;;;;;;;14.93;10.03;;;;;;;-0.94;77.95;101479.45;1836942;77;21025;-75
2022/12/03 08:29:18;;;;;;;16.97;9.70;;;;;;;-0.91;78.03;101479.33;1848316;77;21005;-74
2022/12/03 08:31:50;;;;;;;15.08;10.72;;;;;;;-0.87;77.74;101487.02;1851619;77;21072;-74
2022/12/03 08:34:20;;;;;;;18.57;10.20;;;;;;;-0.86;77.70;101485.25;1842547;77;21125;-74
2022/12/03 08:37:17;;;;;;;19.35;10.18;;;;;;;-0.86;77.43;101483.95;1839973;76;21057;-75
2022/12/03 08:39:50;;;;;;;14.33;9.78;;;;;;;-0.85;77.32;101483.03;1806895;77;21031;-75
2022/12/03 08:42:41;;;;;;;17.80;9.03;;;;;;;-0.83;77.42;101483.39;1824284;77;21588;-74
2022/12/03 08:45:31;;;;;;;14.30;9.20;;;;;;;-0.81;77.20;101484.20;1838155;77;21057;-74
2022/12/03 08:48:01;;;;;;;17.17;10.35;;;;;;;-0.77;77.16;101479.73;1822707;77;21218;-75
2022/12/03 08:50:32;;;;;;;18.75;10.38;;;;;;;-0.73;77.05;101488.31;1803166;77;21544;-75
2022/12/03 08:53:12;;;;;;;19.27;10.45;;;;;;;-0.70;76.93;101489.48;1835734;77;21018;-74
2022/12/03 08:55:50;;;;;;;16.73;11.10;;;;;;;-0.69;76.56;101485.52;1817960;77;21036;-74
2022/12/03 08:58:41;;;;;;;17.62;11.53;;;;;;;-0.68;76.51;101479.84;1786701;78;21028;-75
2022/12/03 09:01:42;;;;;;;17.75;12.35;;;;;;;-0.69;76.44;101477.70;1804690;78;21238;-75
2022/12/03 09:04:36;;;;;;;18.75;10.80;;;;;;;-0.67;76.38;101477.19;1826234;78;21465;-75
2022/12/03 09:07:03;;;;;;;17.87;11.45;;;;;;;-0.64;76.31;101477.52;1822244;77;21496;-75
2022/12/03 09:09:29;;;;;;;16.82;10.70;;;;;;;-0.70;76.28;101486.41;1835164;76;21021;-75
2022/12/03 09:11:56;;;;;;;19.35;11.85;;;;;;;-0.69;76.39;101478.16;1828806;78;21022;-75
2022/12/03 09:14:22;;;;;;;18.05;10.50;;;;;;;-0.70;76.47;101482.96;1807152;78;21148;-76
2022/12/03 09:16:54;;;;;;;17.10;10.72;;;;;;;-0.66;76.40;101484.56;1828462;78;21595;-76
2022/12/03 09:19:18;;;;;;;17.20;10.08;;;;;;;-0.65;76.29;101477.14;1812308;78;21063;-77
2022/12/03 09:21:45;;;;;;;19.05;11.63;;;;;;;-0.68;76.23;101479.84;1831213;77;21064;-75
2022/12/03 09:24:11;;;;;;;17.98;10.70;;;;;;;-0.68;76.17;101477.23;1830390;76;21028;-73
2022/12/03 09:26:38;;;;;;;17.65;10.70;;;;;;;-0.73;76.16;101481.32;1821611;77;21248;-76
2022/12/03 09:29:04;;;;;;;16.32;9.58;;;;;;;-0.70;76.30;101478.59;1819461;78;21552;-75
2022/12/03 09:31:33;;;;;;;19.77;11.63;;;;;;;-0.71;76.23;101482.58;1832624;78;21013;-76
2022/12/03 09:34:01;;;;;;;16.73;10.03;;;;;;;-0.71;76.31;101479.52;1814287;78;21452;-75
2022/12/03 09:36:28;;;;;;;19.20;11.22;;;;;;;-0.74;76.46;101480.91;1794448;77;21084;-76
2022/12/03 09:38:54;;;;;;;20.88;11.33;;;;;;;-0.69;76.13;101476.39;1813253;78;21102;-75
2022/12/03 09:41:21;;;;;;;17.80;10.53;;;;;;;-0.73;75.96;101485.23;1798962;78;21516;-75
2022/12/03 09:43:47;;;;;;;16.10;10.23;;;;;;;-0.71;75.75;101484.73;1812675;77;21009;-75
2022/12/03 09:46:16;;;;;;;17.50;10.95;;;;;;;-0.76;75.71;101493.63;1802731;78;21042;-75
2022/12/03 09:48:42;;;;;;;17.90;9.98;;;;;;;-0.80;75.64;101495.48;1800528;77;21053;-74
2022/12/03 09:51:09;;;;;;;14.05;10.40;;;;;;;-0.88;75.84;101480.08;1804055;77;21138;-75
2022/12/03 09:53:35;;;;;;;16.23;10.50;;;;;;;-0.92;76.07;101491.99;1814827;79;21033;-75
2022/12/03 09:56:02;;;;;;;14.75;10.35;;;;;;;-0.98;76.31;101494.81;1814437;77;21041;-75
2022/12/03 09:58:29;;;;;;;22.67;11.33;;;;;;;-1.03;76.33;101514.05;1803480;78;21016;-75
2022/12/03 10:00:55;;;;;;;15.60;10.30;;;;;;;-1.10;76.49;101495.61;1802583;77;21069;-74
2022/12/03 10:03:24;;;;;;;17.35;11.88;;;;;;;-1.11;76.60;101498.27;1814409;78;21123;-75
2022/12/03 10:05:51;;;;;;;19.42;11.05;;;;;;;-1.13;76.78;101506.13;1806373;77;21096;-76
2022/12/03 10:08:20;;;;;;;20.20;10.85;;;;;;;-1.15;76.96;101506.64;1743775;79;21037;-74
2022/12/03 10:10:53;;;;;;;17.57;9.98;;;;;;;-1.14;76.83;101511.39;1822542;77;21091;-75
2022/12/03 10:13:25;;;;;;;19.55;11.57;;;;;;;-1.20;76.82;101509.83;1788275;79;21010;-75
2022/12/03 10:15:53;;;;;;;18.25;11.25;;;;;;;-1.25;76.88;101516.97;1806398;77;21142;-74
2022/12/03 10:18:23;;;;;;;20.23;11.20;;;;;;;-1.27;76.83;101513.56;1785433;78;21057;-75
2022/12/03 10:20:51;;;;;;;19.90;11.73;;;;;;;-1.31;76.86;101510.66;1812225;78;21022;-74
2022/12/03 10:23:25;;;;;;;18.67;10.65;;;;;;;-1.29;76.66;101508.84;1795554;77;21026;-76
2022/12/03 10:25:58;;;;;;;18.55;10.20;;;;;;;-1.34;76.52;101508.13;1813976;77;21276;-75
2022/12/03 10:28:41;;;;;;;17.20;10.10;;;;;;;-1.36;76.59;101509.48;1780049;79;21744;-74
2022/12/03 10:31:10;;;;;;;18.23;10.60;;;;;;;-1.39;76.60;101502.61;1810735;77;21678;-76
2022/12/03 10:33:40;;;;;;;19.85;11.40;;;;;;;-1.40;76.65;101507.87;1821082;77;21033;-74
2022/12/03 10:36:22;;;;;;;16.67;10.78;;;;;;;-1.36;76.59;101508.17;1846059;77;21080;-74
2022/12/03 10:39:15;;;;;;;21.33;11.20;;;;;;;-1.35;76.47;101520.33;1816788;77;21056;-80
2022/12/03 10:41:43;;;;;;;17.82;10.70;;;;;;;-1.33;75.89;101515.03;1847124;77;21903;-76
2022/12/03 10:44:20;;;;;;;20.37;11.35;;;;;;;-1.30;75.69;101505.83;1829016;76;20989;-73
2022/12/03 10:47:10;;;;;;;16.02;10.60;;;;;;;-1.31;75.79;101508.89;1840489;77;21034;-73
2022/12/03 10:49:38;;;;;;;17.92;10.88;;;;;;;-1.27;75.77;101505.73;1847605;77;21006;-73
2022/12/03 10:52:05;;;;;;;17.73;10.28;;;;;;;-1.19;75.64;101501.97;1850737;76;21075;-71
2022/12/03 10:54:32;;;;;;;18.15;10.08;;;;;;;-1.17;75.58;101506.30;1831417;76;21152;-72
2022/12/03 10:57:00;;;;;;;17.70;9.35;;;;;;;-1.13;75.35;101507.44;1783873;80;21512;-71
2022/12/03 10:59:30;;;;;;;16.97;10.58;;;;;;;-1.12;75.18;101505.25;1784388;80;21029;-74
2022/12/03 11:01:57;;;;;;;16.95;9.43;;;;;;;-1.09;75.11;101512.11;1778953;78;21057;-71
2022/12/03 11:04:36;;;;;;;14.10;9.00;;;;;;;-1.10;75.11;101516.48;1778229;79;21615;-69
2022/12/03 11:07:04;;;;;;;16.50;9.78;;;;;;;-1.04;74.86;101516.27;1793371;79;21194;-71
2022/12/03 11:09:31;;;;;;;18.77;11.05;;;;;;;-1.00;74.56;101514.42;1793905;79;21008;-72
2022/12/03 11:12:07;;;;;;;16.25;9.75;;;;;;;-1.03;74.00;101510.14;1795529;78;21081;-72
2022/12/03 11:15:03;;;;;;;15.75;10.03;;;;;;;-1.02;74.00;101527.51;1776932;79;21057;-74
2022/12/03 11:17:49;;;;;;;14.80;9.48;;;;;;;-0.98;73.68;101527.42;1843701;76;21459;-73
2022/12/03 11:20:27;;;;;;;15.38;10.13;;;;;;;-1.00;73.79;101529.61;1837493;76;21783;-72
2022/12/03 11:22:57;;;;;;;17.95;11.35;;;;;;;-0.92;73.46;101535.89;1832972;77;21479;-74
2022/12/03 11:25:30;;;;;;;15.45;11.05;;;;;;;-0.91;73.49;101536.73;1839783;77;21033;-74
2022/12/03 11:28:17;;;;;;;16.57;10.78;;;;;;;-0.91;73.42;101534.97;1812348;77;21059;-74
2022/12/03 11:31:01;;;;;;;13.62;8.88;;;;;;;-0.89;72.77;101527.09;1849855;77;21064;-73
2022/12/03 11:33:38;;;;;;;13.22;8.83;;;;;;;-0.90;72.79;101551.50;1827394;77;21179;-72
2022/12/03 11:36:10;;;;;;;12.20;8.03;;;;;;;-0.94;72.78;101536.85;1837332;77;21037;-73
2022/12/03 11:38:55;;;;;;;10.95;7.12;;;;;;;-0.96;72.83;101536.89;1821044;77;21515;-72
2022/12/03 11:41:30;;;;;;;14.20;7.95;;;;;;;-0.97;73.05;101535.17;1825527;78;21060;-73
2022/12/03 11:44:17;;;;;;;12.93;8.08;;;;;;;-0.96;72.89;101536.89;1822176;77;21096;-73
2022/12/03 11:46:44;;;;;;;11.73;7.75;;;;;;;-0.90;72.53;101535.38;1833718;77;21229;-72
2022/12/03 11:49:33;;;;;;;10.72;6.62;;;;;;;-0.87;72.19;101533.98;1834364;75;21017;-72